Time;durP1;ratioP1;P1;durP2;ratioP2;P2;SDS_P1;SDS_P2;PMS_P1;PMS_P2;Temp;Humidity;BMP_temperature;BMP_pressure;BME280_temperature;BME280_humidity;BME280_pressure;Samples;Min_cycle;Max_cycle;Signal;HPM_P1;HPM_P2
2023/07/30 00:01:43;;;;;;;3.35;2.33;;;17.30;99.90;;;;;;5067667;28;20044;-64
2023/07/30 00:04:10;;;;;;;2.50;2.17;;;17.20;99.90;;;;;;5042025;28;20037;-64
2023/07/30 00:06:42;;;;;;;4.75;2.47;;;17.20;99.90;;;;;;5053184;28;20051;-64
2023/07/30 00:09:09;;;;;;;4.18;2.63;;;17.20;99.90;;;;;;5040942;28;20116;-64
2023/07/30 00:11:40;;;;;;;6.53;2.13;;;17.10;99.90;;;;;;5056710;28;20048;-64
2023/07/30 00:14:12;;;;;;;2.90;2.38;;;17.10;99.90;;;;;;5052719;28;20045;-64
2023/07/30 00:16:44;;;;;;;4.50;2.42;;;17.10;99.90;;;;;;5064810;28;20041;-64
2023/07/30 00:19:16;;;;;;;3.50;2.40;;;17.10;99.90;;;;;;5060873;28;20047;-64
2023/07/30 00:21:48;;;;;;;4.05;2.28;;;17.00;99.90;;;;;;5058889;28;20048;-64
2023/07/30 00:24:20;;;;;;;2.40;2.20;;;17.00;99.90;;;;;;5054419;28;20041;-64
2023/07/30 00:26:52;;;;;;;3.15;2.70;;;17.00;99.90;;;;;;5036922;28;20044;-64
2023/07/30 00:29:24;;;;;;;3.45;2.72;;;17.00;99.90;;;;;;5045948;28;20114;-64
2023/07/30 00:31:55;;;;;;;2.92;2.47;;;16.90;99.90;;;;;;5055475;28;20094;-64
2023/07/30 00:34:27;;;;;;;3.63;1.92;;;16.90;99.90;;;;;;5050413;28;20063;-64
2023/07/30 00:36:59;;;;;;;6.57;4.50;;;16.90;99.90;;;;;;5062690;28;20040;-64
2023/07/30 00:39:31;;;;;;;4.43;2.88;;;16.90;99.90;;;;;;5061458;28;20082;-64
2023/07/30 00:42:03;;;;;;;3.90;2.15;;;16.90;99.90;;;;;;5042754;28;20041;-64
2023/07/30 00:44:34;;;;;;;2.97;2.40;;;16.90;99.90;;;;;;5042189;28;20037;-64
2023/07/30 00:47:07;;;;;;;4.72;2.70;;;16.90;99.90;;;;;;5055049;28;20040;-64
2023/07/30 00:49:40;;;;;;;3.17;2.60;;;16.90;99.90;;;;;;5065875;28;20422;-64
2023/07/30 00:52:11;;;;;;;4.03;2.80;;;16.90;99.90;;;;;;5053565;28;20072;-65
2023/07/30 00:54:44;;;;;;;4.18;2.75;;;16.80;99.90;;;;;;5049711;28;20037;-64
2023/07/30 00:57:17;;;;;;;4.57;3.40;;;16.80;99.90;;;;;;5064560;28;20049;-64
2023/07/30 00:59:50;;;;;;;3.15;2.45;;;16.90;99.90;;;;;;5056685;28;20037;-63
2023/07/30 01:02:18;;;;;;;4.32;2.55;;;16.80;99.90;;;;;;5052189;28;20052;-64
2023/07/30 01:04:50;;;;;;;3.17;2.83;;;16.80;99.90;;;;;;5066034;28;20420;-64
2023/07/30 01:07:22;;;;;;;3.20;2.40;;;16.90;99.90;;;;;;5065322;28;20382;-64
2023/07/30 01:09:54;;;;;;;3.58;2.40;;;16.90;99.90;;;;;;5045362;28;20040;-62
2023/07/30 01:12:28;;;;;;;3.30;2.33;;;16.90;99.90;;;;;;5066025;28;20036;-64
2023/07/30 01:15:01;;;;;;;5.43;2.88;;;16.90;99.90;;;;;;5029678;28;20064;-63
2023/07/30 01:17:33;;;;;;;3.67;2.30;;;17.10;99.90;;;;;;5059951;28;20047;-62
2023/07/30 01:20:06;;;;;;;4.10;2.73;;;17.10;99.90;;;;;;5038964;28;20977;-64
2023/07/30 01:22:38;;;;;;;2.70;2.30;;;17.10;99.90;;;;;;5049398;28;20044;-64
2023/07/30 01:25:10;;;;;;;3.72;2.75;;;17.10;99.90;;;;;;5047718;28;20052;-64
2023/07/30 01:27:48;;;;;;;3.80;2.55;;;17.10;99.90;;;;;;5048168;28;20107;-64
2023/07/30 01:30:29;;;;;;;2.58;2.33;;;17.20;99.90;;;;;;5063446;28;20558;-64
2023/07/30 01:33:02;;;;;;;2.85;2.00;;;17.20;99.90;;;;;;5072909;28;20044;-64
2023/07/30 01:35:36;;;;;;;4.50;2.63;;;17.20;99.90;;;;;;5043140;28;20571;-64
2023/07/30 01:38:05;;;;;;;4.57;2.35;;;17.20;99.90;;;;;;5057847;28;20055;-64
2023/07/30 01:40:37;;;;;;;4.45;3.08;;;17.20;99.90;;;;;;5051470;28;20504;-64
2023/07/30 01:43:10;;;;;;;3.33;2.45;;;17.30;99.90;;;;;;5100393;22;20510;-64
2023/07/30 01:45:42;;;;;;;3.95;2.67;;;17.30;99.90;;;;;;5080238;28;20054;-64
2023/07/30 01:48:14;;;;;;;3.70;2.92;;;17.30;99.90;;;;;;5079288;28;20032;-64
2023/07/30 01:50:48;;;;;;;3.67;3.00;;;17.30;99.90;;;;;;5082985;28;20438;-64
2023/07/30 01:53:20;;;;;;;3.50;2.83;;;17.30;99.90;;;;;;5071804;28;20131;-64
2023/07/30 01:55:47;;;;;;;3.75;2.90;;;17.40;99.90;;;;;;5071597;28;20047;-64
2023/07/30 01:58:19;;;;;;;3.30;3.00;;;17.30;99.90;;;;;;5067507;28;20048;-64
2023/07/30 02:00:50;;;;;;;6.43;3.00;;;17.40;99.90;;;;;;5065005;28;20468;-64
2023/07/30 02:03:22;;;;;;;3.83;2.60;;;17.30;99.90;;;;;;5059596;28;20041;-64
2023/07/30 02:05:54;;;;;;;3.10;2.72;;;17.30;99.90;;;;;;5067374;28;20037;-64
2023/07/30 02:08:21;;;;;;;3.17;2.70;;;17.30;99.90;;;;;;5071956;28;20071;-64
2023/07/30 02:10:59;;;;;;;4.55;2.75;;;17.20;99.90;;;;;;5068629;28;20055;-64
2023/07/30 02:13:26;;;;;;;2.88;2.58;;;17.30;99.90;;;;;;5079176;28;20071;-64
2023/07/30 02:15:53;;;;;;;3.55;2.40;;;17.20;99.90;;;;;;5070227;28;20462;-64
2023/07/30 02:18:25;;;;;;;3.10;2.67;;;17.20;99.90;;;;;;5057987;28;20054;-64
2023/07/30 02:20:57;;;;;;;3.65;2.50;;;17.30;99.90;;;;;;5084485;28;20040;-64
2023/07/30 02:23:29;;;;;;;3.47;2.50;;;17.20;99.90;;;;;;5065560;28;20036;-64
2023/07/30 02:25:56;;;;;;;3.15;2.67;;;17.10;99.90;;;;;;5079726;28;20082;-64
2023/07/30 02:28:28;;;;;;;3.00;2.45;;;17.10;99.90;;;;;;5079154;28;20037;-64
2023/07/30 02:31:00;;;;;;;3.08;2.45;;;17.00;99.90;;;;;;5071036;28;20081;-64
2023/07/30 02:33:32;;;;;;;3.55;2.70;;;17.00;99.90;;;;;;5054180;28;20051;-64
2023/07/30 02:36:04;;;;;;;3.55;2.90;;;16.90;99.90;;;;;;5065147;28;20049;-64
2023/07/30 02:38:35;;;;;;;3.15;2.83;;;16.90;99.90;;;;;;5070774;28;20113;-64
2023/07/30 02:41:07;;;;;;;4.10;2.65;;;16.90;99.90;;;;;;5068871;28;20056;-64
2023/07/30 02:43:34;;;;;;;5.10;2.75;;;16.80;99.90;;;;;;5069516;28;20098;-64
2023/07/30 02:46:06;;;;;;;4.93;2.60;;;16.80;99.90;;;;;;5050652;28;20044;-64
2023/07/30 02:48:38;;;;;;;5.28;2.90;;;16.70;99.90;;;;;;5044713;28;20033;-64
2023/07/30 02:51:10;;;;;;;3.33;2.80;;;16.70;99.90;;;;;;5068194;28;20142;-64
2023/07/30 02:53:45;;;;;;;3.65;2.83;;;16.70;99.90;;;;;;5069328;28;20043;-64
2023/07/30 02:56:17;;;;;;;4.93;3.15;;;16.70;99.90;;;;;;5061732;28;20044;-64
2023/07/30 02:58:49;;;;;;;4.15;2.72;;;16.70;99.90;;;;;;5060745;28;20127;-64
2023/07/30 03:01:22;;;;;;;3.88;3.15;;;16.60;99.90;;;;;;5041322;28;20520;-64
2023/07/30 03:03:48;;;;;;;3.45;3.00;;;16.60;99.90;;;;;;5060092;28;20041;-64
2023/07/30 03:06:20;;;;;;;5.28;2.95;;;16.60;99.90;;;;;;5069362;28;20404;-64
2023/07/30 03:08:52;;;;;;;5.35;3.03;;;16.60;99.90;;;;;;5070588;28;20124;-63
2023/07/30 03:11:24;;;;;;;3.80;2.83;;;16.60;99.90;;;;;;5047278;28;20036;-64
2023/07/30 03:13:56;;;;;;;5.90;3.65;;;16.50;99.90;;;;;;5051488;28;20048;-64
2023/07/30 03:16:29;;;;;;;3.72;3.30;;;16.50;99.90;;;;;;5060916;28;20045;-64
2023/07/30 03:19:00;;;;;;;5.65;3.97;;;16.50;99.90;;;;;;5081278;28;20072;-64
2023/07/30 03:21:32;;;;;;;4.88;3.20;;;16.50;99.90;;;;;;5061808;28;20048;-64
2023/07/30 03:24:04;;;;;;;4.07;3.63;;;16.50;99.90;;;;;;5060980;28;20064;-64
2023/07/30 03:26:36;;;;;;;4.53;3.30;;;16.60;99.90;;;;;;5070210;28;20071;-64
2023/07/30 03:29:08;;;;;;;4.15;3.17;;;16.60;99.90;;;;;;5068809;28;20046;-64
2023/07/30 03:31:39;;;;;;;6.70;3.20;;;16.60;99.90;;;;;;5070656;28;20032;-64
2023/07/30 03:34:11;;;;;;;4.40;3.15;;;16.60;99.90;;;;;;5062461;28;20102;-64
2023/07/30 03:36:43;;;;;;;4.88;3.33;;;16.70;99.90;;;;;;5066899;28;20149;-64
2023/07/30 03:39:15;;;;;;;3.83;2.70;;;16.70;99.90;;;;;;5068799;28;20116;-64
2023/07/30 03:41:47;;;;;;;3.97;3.35;;;16.70;99.90;;;;;;5053342;28;20071;-64
2023/07/30 03:44:19;;;;;;;4.78;3.10;;;16.70;99.90;;;;;;5063632;28;20043;-64
2023/07/30 03:46:51;;;;;;;5.05;2.92;;;16.80;99.90;;;;;;5069315;28;20123;-65
2023/07/30 03:49:22;;;;;;;5.93;3.22;;;16.80;99.90;;;;;;5056359;28;20128;-64
2023/07/30 03:51:54;;;;;;;4.18;3.30;;;16.70;99.90;;;;;;5068037;28;20064;-64
2023/07/30 03:54:26;;;;;;;4.13;3.03;;;16.70;99.90;;;;;;5070949;28;20063;-64
2023/07/30 03:56:58;;;;;;;4.72;3.10;;;16.70;99.90;;;;;;5052112;28;20093;-64
2023/07/30 03:59:30;;;;;;;3.72;3.00;;;16.70;99.90;;;;;;5075419;28;20052;-64
2023/07/30 04:02:04;;;;;;;6.78;2.97;;;16.70;99.90;;;;;;5082069;28;20508;-64
2023/07/30 04:04:36;;;;;;;3.88;3.20;;;16.80;99.90;;;;;;5082852;28;20428;-64
2023/07/30 04:07:03;;;;;;;3.75;3.17;;;16.70;99.90;;;;;;5064949;28;20585;-64
2023/07/30 04:09:35;;;;;;;3.80;3.20;;;16.70;99.90;;;;;;5063269;28;20592;-63
2023/07/30 04:12:02;;;;;;;3.83;3.05;;;16.70;99.90;;;;;;5065473;28;20032;-64
2023/07/30 04:14:34;;;;;;;3.47;2.88;;;16.70;99.90;;;;;;5056377;28;20443;-64
2023/07/30 04:17:06;;;;;;;4.03;3.22;;;16.70;99.90;;;;;;5073687;28;20047;-64
2023/07/30 04:19:38;;;;;;;4.03;3.05;;;16.70;99.90;;;;;;5085786;28;20508;-64
2023/07/30 04:22:10;;;;;;;3.65;3.28;;;16.70;99.90;;;;;;5084261;28;20040;-64
2023/07/30 04:24:42;;;;;;;3.97;3.10;;;16.70;99.90;;;;;;5071028;28;20044;-64
2023/07/30 04:27:14;;;;;;;4.00;3.30;;;16.70;99.90;;;;;;5069105;28;20040;-64
2023/07/30 04:29:46;;;;;;;4.20;3.00;;;16.70;99.90;;;;;;5062309;28;20412;-64
2023/07/30 04:32:13;;;;;;;3.50;2.90;;;16.70;99.90;;;;;;5066993;28;20061;-64
2023/07/30 04:34:45;;;;;;;5.38;3.30;;;16.70;99.90;;;;;;5060577;28;20040;-64
2023/07/30 04:37:17;;;;;;;3.15;2.65;;;16.70;99.90;;;;;;5040572;28;20140;-64
2023/07/30 04:39:50;;;;;;;;;;;16.70;99.90;;;;;;5061952;28;20111;-64
2023/07/30 04:42:18;;;;;;;4.22;2.92;;;16.70;99.90;;;;;;5070329;28;20399;-64
2023/07/30 04:44:44;;;;;;;3.70;3.25;;;16.70;99.90;;;;;;5070165;28;20123;-64
2023/07/30 04:47:17;;;;;;;2.90;2.63;;;16.70;99.90;;;;;;5067909;28;20419;-64
2023/07/30 04:49:49;;;;;;;3.38;3.08;;;16.70;99.90;;;;;;5068946;28;20048;-64
2023/07/30 04:52:21;;;;;;;3.97;2.67;;;16.80;99.90;;;;;;5082790;28;20040;-64
2023/07/30 04:54:52;;;;;;;4.20;3.10;;;16.80;99.90;;;;;;5063650;28;20047;-64
2023/07/30 04:57:25;;;;;;;3.13;2.83;;;16.80;99.90;;;;;;5064297;28;20531;-64
2023/07/30 04:59:52;;;;;;;4.72;2.97;;;16.90;99.90;;;;;;5065347;28;20045;-64
2023/07/30 05:02:24;;;;;;;3.58;2.85;;;16.90;99.90;;;;;;5041874;28;20060;-64
2023/07/30 05:04:56;;;;;;;4.03;3.17;;;16.90;99.90;;;;;;5076674;28;20041;-64
2023/07/30 05:07:28;;;;;;;5.72;2.92;;;16.90;99.90;;;;;;5065094;28;20048;-64
2023/07/30 05:10:00;;;;;;;3.15;2.80;;;17.00;99.90;;;;;;5080362;28;20051;-64
2023/07/30 05:12:32;;;;;;;4.90;3.08;;;17.00;99.90;;;;;;5081144;28;20054;-64
2023/07/30 05:15:05;;;;;;;4.07;2.90;;;17.10;99.90;;;;;;5084999;28;20048;-64
2023/07/30 05:17:37;;;;;;;5.40;2.95;;;17.10;99.90;;;;;;5064477;28;20048;-64
2023/07/30 05:20:05;;;;;;;3.40;3.10;;;17.10;99.90;;;;;;5071148;28;20041;-64
2023/07/30 05:22:37;;;;;;;3.58;2.90;;;17.20;99.90;;;;;;5053375;28;20044;-64
2023/07/30 05:25:08;;;;;;;3.45;3.05;;;17.20;99.90;;;;;;5055550;28;20123;-64
2023/07/30 05:27:40;;;;;;;3.03;2.35;;;17.30;99.90;;;;;;5076447;28;20036;-64
2023/07/30 05:30:12;;;;;;;3.08;2.50;;;17.30;99.90;;;;;;5063888;28;20041;-64
2023/07/30 05:32:44;;;;;;;5.13;2.72;;;17.40;99.90;;;;;;5079710;28;20127;-64
2023/07/30 05:35:18;;;;;;;3.85;3.15;;;17.40;99.90;;;;;;5077665;28;20127;-64
2023/07/30 05:37:50;;;;;;;2.97;2.50;;;17.50;99.90;;;;;;5085832;28;20048;-64
2023/07/30 05:40:22;;;;;;;4.47;3.83;;;17.60;99.90;;;;;;5066788;28;20128;-64
2023/07/30 05:42:54;;;;;;;4.22;2.83;;;17.60;99.90;;;;;;5074410;28;20181;-64
2023/07/30 05:45:26;;;;;;;3.30;2.58;;;17.70;99.90;;;;;;5068108;28;20895;-64
2023/07/30 05:47:53;;;;;;;3.80;2.92;;;17.80;99.90;;;;;;5077040;28;20055;-65
2023/07/30 05:50:25;;;;;;;3.85;2.50;;;17.90;99.90;;;;;;5080850;28;20142;-63
2023/07/30 05:52:56;;;;;;;3.15;2.83;;;18.00;99.90;;;;;;5064701;28;20492;-64
2023/07/30 05:55:28;;;;;;;3.40;2.72;;;18.10;99.90;;;;;;5082140;28;20047;-64
2023/07/30 05:58:00;;;;;;;3.17;2.22;;;18.10;99.90;;;;;;5080525;28;20036;-64
2023/07/30 06:00:27;;;;;;;5.80;2.60;;;18.10;99.90;;;;;;5082589;28;20045;-65
2023/07/30 06:02:54;;;;;;;4.38;2.92;;;18.10;99.90;;;;;;5086742;28;20455;-66
2023/07/30 06:05:26;;;;;;;3.95;2.83;;;18.10;99.90;;;;;;5065243;28;20508;-66
2023/07/30 06:07:53;;;;;;;3.08;2.78;;;18.10;99.90;;;;;;5077194;28;20043;-66
2023/07/30 06:10:20;;;;;;;4.10;2.83;;;18.20;99.90;;;;;;5076577;28;20037;-66
2023/07/30 06:12:47;;;;;;;3.78;2.47;;;18.20;99.90;;;;;;5062789;28;20024;-65
2023/07/30 06:15:19;;;;;;;2.95;2.28;;;18.30;99.90;;;;;;5082529;28;20036;-64
2023/07/30 06:17:50;;;;;;;3.13;2.50;;;18.40;99.90;;;;;;5081038;28;20043;-66
2023/07/30 06:20:23;;;;;;;2.70;2.40;;;18.40;99.90;;;;;;5079984;28;20508;-64
2023/07/30 06:22:54;;;;;;;3.38;2.25;;;18.50;99.90;;;;;;5071000;28;20066;-64
2023/07/30 06:25:26;;;;;;;3.22;2.05;;;18.60;99.90;;;;;;5062546;28;20086;-64
2023/07/30 06:27:54;;;;;;;2.53;2.30;;;18.60;99.90;;;;;;5080604;28;20033;-64
2023/07/30 06:30:21;;;;;;;3.08;2.35;;;18.70;99.90;;;;;;5079988;28;20038;-64
2023/07/30 06:32:48;;;;;;;4.18;2.30;;;18.80;99.90;;;;;;5079954;28;20813;-64
2023/07/30 06:35:19;;;;;;;2.88;2.40;;;18.80;99.90;;;;;;5071804;28;20047;-64
2023/07/30 06:37:51;;;;;;;5.63;2.72;;;18.90;99.90;;;;;;5087056;28;20419;-64
2023/07/30 06:40:23;;;;;;;2.42;2.20;;;19.10;99.90;;;;;;5067099;28;20044;-64
2023/07/30 06:42:55;;;;;;;2.63;2.22;;;19.10;99.90;;;;;;5064527;28;20037;-64
2023/07/30 06:45:27;;;;;;;2.78;2.42;;;19.20;99.90;;;;;;5062952;28;20044;-64
2023/07/30 06:47:59;;;;;;;4.78;2.53;;;19.20;99.90;;;;;;5057971;28;20064;-64
2023/07/30 06:50:31;;;;;;;3.53;2.25;;;19.20;99.90;;;;;;5068923;28;20438;-64
2023/07/30 06:53:03;;;;;;;6.88;2.40;;;19.30;99.90;;;;;;5065796;28;20044;-64
2023/07/30 06:55:35;;;;;;;3.05;2.30;;;19.30;99.90;;;;;;5076115;28;20058;-64
2023/07/30 06:58:02;;;;;;;2.90;2.40;;;19.40;99.90;;;;;;5070488;28;20471;-64
2023/07/30 07:00:34;;;;;;;2.60;2.33;;;19.40;99.90;;;;;;5065011;28;20041;-64
2023/07/30 07:03:06;;;;;;;4.22;2.80;;;19.50;99.90;;;;;;5065805;28;20419;-64
2023/07/30 07:05:32;;;;;;;3.15;2.05;;;19.60;99.90;;;;;;5061289;28;20440;-64
2023/07/30 07:08:04;;;;;;;4.95;2.63;;;19.60;99.90;;;;;;5080080;28;20035;-64
2023/07/30 07:10:36;;;;;;;3.10;2.50;;;19.70;99.90;;;;;;5082294;28;20051;-64
2023/07/30 07:13:08;;;;;;;4.05;2.50;;;19.70;99.90;;;;;;5077867;28;20467;-64
2023/07/30 07:15:39;;;;;;;6.80;2.33;;;19.80;99.90;;;;;;5061686;28;20055;-65
2023/07/30 07:18:12;;;;;;;3.28;2.17;;;19.80;99.90;;;;;;5066861;28;20094;-64
2023/07/30 07:20:44;;;;;;;2.58;2.20;;;20.00;99.90;;;;;;5080654;28;20127;-64
2023/07/30 07:23:10;;;;;;;3.33;2.55;;;20.00;99.90;;;;;;5081588;28;20040;-64
2023/07/30 07:25:43;;;;;;;2.47;2.25;;;20.10;99.90;;;;;;5081183;28;20044;-64
2023/07/30 07:28:16;;;;;;;2.85;2.40;;;20.20;99.90;;;;;;5081632;28;20041;-64
2023/07/30 07:30:48;;;;;;;2.38;2.17;;;20.20;99.90;;;;;;5074637;28;20561;-64
2023/07/30 07:33:20;;;;;;;5.22;2.30;;;20.30;99.90;;;;;;5064005;28;20047;-64
2023/07/30 07:36:01;;;;;;;2.40;2.20;;;20.40;99.90;;;;;;5054839;28;20049;-64
2023/07/30 07:38:34;;;;;;;3.13;1.98;;;20.50;99.90;;;;;;5085124;28;20050;-66
2023/07/30 07:41:05;;;;;;;4.18;2.78;;;20.60;99.90;;;;;;5066137;28;20036;-65
2023/07/30 07:43:37;;;;;;;3.35;1.90;;;20.70;99.90;;;;;;5062008;28;20048;-64
2023/07/30 07:46:13;;;;;;;4.40;2.10;;;20.70;99.90;;;;;;5053960;28;20047;-64
2023/07/30 07:48:44;;;;;;;2.53;2.20;;;20.80;99.90;;;;;;5066431;28;20052;-64
2023/07/30 07:51:16;;;;;;;2.25;2.05;;;20.80;99.90;;;;;;5061408;28;20044;-64
2023/07/30 07:53:48;;;;;;;1.92;1.70;;;20.90;99.90;;;;;;5076584;28;20507;-64
2023/07/30 07:56:20;;;;;;;3.53;2.30;;;21.10;99.90;;;;;;5062486;28;20055;-63
2023/07/30 07:58:51;;;;;;;2.28;1.83;;;21.10;99.90;;;;;;5073886;28;20047;-65
2023/07/30 08:01:23;;;;;;;2.40;1.88;;;21.10;99.90;;;;;;5086387;28;20090;-65
2023/07/30 08:03:58;;;;;;;1.92;1.73;;;21.00;99.90;;;;;;5076638;28;20041;-64
2023/07/30 08:06:32;;;;;;;3.53;2.00;;;21.00;99.90;;;;;;5067342;28;20067;-65
2023/07/30 08:09:04;;;;;;;2.38;1.65;;;21.00;99.90;;;;;;5084302;28;20043;-64
2023/07/30 08:11:31;;;;;;;1.73;1.58;;;21.20;99.90;;;;;;5064198;28;20062;-67
2023/07/30 08:14:03;;;;;;;2.85;2.03;;;21.20;99.90;;;;;;5068482;28;20466;-65
2023/07/30 08:16:35;;;;;;;1.83;1.52;;;21.30;99.90;;;;;;5074906;28;20042;-64
2023/07/30 08:19:02;;;;;;;1.92;1.60;;;21.50;99.90;;;;;;5076679;28;20131;-64
2023/07/30 08:21:34;;;;;;;2.00;1.70;;;21.40;99.90;;;;;;5064431;28;20028;-65
2023/07/30 08:24:06;;;;;;;3.33;1.65;;;21.40;99.90;;;;;;5087596;28;20530;-65
2023/07/30 08:26:33;;;;;;;2.85;2.47;;;21.30;99.90;;;;;;5082551;28;20036;-65
2023/07/30 08:29:06;;;;;;;2.17;1.80;;;21.30;99.90;;;;;;5085579;28;20036;-65
2023/07/30 08:31:32;;;;;;;1.92;1.50;;;21.40;99.90;;;;;;5065755;28;20044;-65
2023/07/30 08:34:04;;;;;;;2.30;1.73;;;21.40;99.90;;;;;;5086238;28;20032;-65
2023/07/30 08:36:31;;;;;;;1.75;1.40;;;21.50;99.90;;;;;;5065421;28;20054;-64
2023/07/30 08:39:03;;;;;;;1.85;1.60;;;21.60;99.90;;;;;;5064123;28;20041;-64
2023/07/30 08:41:31;;;;;;;2.28;1.85;;;21.80;99.90;;;;;;5079445;28;20107;-64
2023/07/30 08:44:04;;;;;;;3.58;1.92;;;22.00;99.90;;;;;;5082763;28;20048;-66
2023/07/30 08:46:36;;;;;;;3.78;2.20;;;22.00;99.90;;;;;;5080576;28;20029;-64
2023/07/30 08:49:02;;;;;;;1.55;1.30;;;22.00;99.90;;;;;;5086341;28;20693;-64
2023/07/30 08:51:37;;;;;;;1.80;1.50;;;21.90;99.90;;;;;;5067533;28;20115;-64
2023/07/30 08:54:12;;;;;;;2.20;1.52;;;21.70;99.90;;;;;;5082505;28;20037;-64
2023/07/30 08:56:44;;;;;;;2.38;1.73;;;21.60;99.90;;;;;;5067635;28;20050;-64
2023/07/30 08:59:17;;;;;;;1.75;1.40;;;21.50;99.90;;;;;;5082564;28;20032;-64
2023/07/30 09:01:52;;;;;;;2.00;1.70;;;21.60;99.90;;;;;;5079849;28;20043;-64
2023/07/30 09:04:24;;;;;;;4.03;1.60;;;21.80;99.90;;;;;;5084253;28;20040;-66
2023/07/30 09:06:51;;;;;;;2.10;1.90;;;22.00;99.90;;;;;;5077163;28;20503;-66
2023/07/30 09:09:17;;;;;;;2.03;1.67;;;22.10;99.90;;;;;;5064459;28;20042;-69
2023/07/30 09:11:56;;;;;;;2.00;1.50;;;22.20;99.90;;;;;;5051236;28;20059;-65
2023/07/30 09:14:28;;;;;;;3.85;1.45;;;22.20;99.90;;;;;;5085777;28;20068;-66
2023/07/30 09:16:58;;;;;;;2.30;1.70;;;22.00;99.90;;;;;;5087955;28;20411;-64
2023/07/30 09:19:35;;;;;;;2.05;1.63;;;22.00;99.90;;;;;;5072563;28;20104;-64
2023/07/30 09:22:07;;;;;;;2.10;1.60;;;22.00;99.90;;;;;;5086364;28;20040;-64
2023/07/30 09:24:44;;;;;;;2.00;1.67;;;22.00;99.90;;;;;;5069619;28;20106;-64
2023/07/30 09:27:22;;;;;;;1.83;1.50;;;22.20;99.90;;;;;;5073235;28;20028;-64
2023/07/30 09:29:59;;;;;;;2.55;2.28;;;22.20;99.90;;;;;;5064225;28;20094;-64
2023/07/30 09:32:33;;;;;;;3.38;2.08;;;22.20;99.90;;;;;;5067279;28;20066;-63
2023/07/30 09:35:10;;;;;;;1.90;1.50;;;22.20;99.90;;;;;;5069467;28;20040;-64
2023/07/30 09:37:42;;;;;;;1.83;1.50;;;22.20;99.90;;;;;;5086956;28;20097;-64
2023/07/30 09:40:17;;;;;;;2.15;1.75;;;22.20;99.90;;;;;;5089271;28;20051;-64
2023/07/30 09:42:46;;;;;;;2.22;1.67;;;22.30;99.90;;;;;;5084843;28;20074;-64
2023/07/30 09:45:23;;;;;;;1.40;1.23;;;22.40;99.90;;;;;;5091383;28;20119;-64
2023/07/30 09:47:58;;;;;;;3.15;1.60;;;22.50;99.90;;;;;;5074580;28;20119;-64
2023/07/30 09:50:31;;;;;;;1.65;1.50;;;22.50;99.90;;;;;;5080776;28;20499;-64
2023/07/30 09:53:03;;;;;;;1.75;1.23;;;22.30;99.90;;;;;;5068790;28;20419;-64
2023/07/30 09:55:35;;;;;;;2.95;1.73;;;22.30;99.90;;;;;;5097926;22;20049;-64
2023/07/30 09:58:10;;;;;;;1.98;1.77;;;22.20;99.90;;;;;;5109241;28;20122;-64
2023/07/30 10:00:37;;;;;;;2.10;1.70;;;22.20;99.90;;;;;;5087322;28;20115;-64
2023/07/30 10:03:11;;;;;;;3.25;2.25;;;22.20;99.90;;;;;;5103382;28;20107;-63
2023/07/30 10:05:44;;;;;;;2.28;1.88;;;22.20;99.90;;;;;;5092163;28;20035;-64
2023/07/30 10:08:17;;;;;;;2.20;1.80;;;22.10;99.90;;;;;;5082149;28;20032;-63
2023/07/30 10:10:50;;;;;;;4.63;2.88;;;21.70;99.90;;;;;;5071823;28;20044;-63
2023/07/30 10:13:26;;;;;;;2.00;1.55;;;21.40;99.90;;;;;;5098848;28;20384;-63
2023/07/30 10:15:59;;;;;;;1.95;1.55;;;21.20;99.90;;;;;;5072533;28;20513;-65
2023/07/30 10:18:39;;;;;;;2.53;1.50;;;21.00;99.90;;;;;;5082387;28;20466;-63
2023/07/30 10:21:21;;;;;;;2.53;1.48;;;20.80;99.90;;;;;;5099272;28;20312;-63
2023/07/30 10:24:03;;;;;;;2.53;1.30;;;20.60;99.90;;;;;;5101447;28;20501;-64
2023/07/30 10:26:37;;;;;;;1.60;1.48;;;20.50;99.90;;;;;;5095901;28;20400;-63
2023/07/30 10:29:19;;;;;;;2.90;1.40;;;20.40;99.90;;;;;;5060461;28;20051;-64
2023/07/30 10:31:55;;;;;;;3.10;1.55;;;20.30;99.90;;;;;;5090128;28;20040;-65
2023/07/30 10:34:46;;;;;;;2.75;1.60;;;20.20;99.90;;;;;;5087805;28;20608;-65
2023/07/30 10:37:20;;;;;;;3.10;1.63;;;20.10;99.90;;;;;;5092835;28;20499;-65
2023/07/30 10:39:53;;;;;;;2.80;1.40;;;20.20;99.90;;;;;;5097967;28;20039;-65
2023/07/30 10:42:34;;;;;;;2.45;1.90;;;20.40;99.90;;;;;;5099364;28;20499;-65
2023/07/30 10:45:07;;;;;;;2.60;1.60;;;20.70;99.90;;;;;;5106125;28;20058;-65
2023/07/30 10:47:41;;;;;;;1.67;1.48;;;20.80;99.90;;;;;;5095218;28;20032;-65
2023/07/30 10:50:14;;;;;;;2.45;1.40;;;20.80;99.90;;;;;;5071763;28;20058;-65
2023/07/30 10:52:46;;;;;;;2.38;1.38;;;20.70;99.90;;;;;;5100492;28;20067;-65
2023/07/30 10:55:18;;;;;;;1.85;1.52;;;20.60;99.90;;;;;;5076585;28;20044;-65
2023/07/30 10:57:47;;;;;;;2.40;1.83;;;20.60;99.90;;;;;;5097875;28;20032;-65
2023/07/30 11:00:14;;;;;;;1.95;1.40;;;20.70;99.90;;;;;;5095166;28;20626;-65
2023/07/30 11:02:41;;;;;;;2.47;1.50;;;20.80;99.90;;;;;;5095412;28;20122;-65
2023/07/30 11:05:13;;;;;;;4.05;1.73;;;21.00;99.90;;;;;;5099931;28;20615;-65
2023/07/30 11:07:52;;;;;;;3.72;1.90;;;21.20;99.90;;;;;;5100841;28;20515;-65
2023/07/30 11:10:24;;;;;;;3.67;1.60;;;21.30;99.90;;;;;;5099684;28;20124;-65
2023/07/30 11:12:51;;;;;;;2.40;1.63;;;21.30;99.90;;;;;;5096169;28;20035;-65
2023/07/30 11:15:23;;;;;;;1.83;1.55;;;21.40;99.90;;;;;;5093917;28;20114;-65
2023/07/30 11:17:56;;;;;;;3.20;1.55;;;21.50;99.90;;;;;;5105578;28;20507;-65
2023/07/30 11:20:29;;;;;;;2.90;1.42;;;21.40;99.90;;;;;;5068464;28;20044;-65
2023/07/30 11:23:01;;;;;;;4.53;2.15;;;21.30;99.90;;;;;;5078660;28;20044;-65
2023/07/30 11:25:33;;;;;;;4.40;2.20;;;21.20;99.90;;;;;;5097271;28;20028;-65
2023/07/30 11:28:05;;;;;;;2.08;1.42;;;21.00;99.90;;;;;;5098260;28;20040;-65
2023/07/30 11:30:36;;;;;;;2.70;1.80;;;20.90;99.90;;;;;;5085586;28;20070;-65
2023/07/30 11:33:15;;;;;;;1.88;1.45;;;20.90;99.90;;;;;;5071242;28;20032;-65
2023/07/30 11:35:47;;;;;;;2.15;1.80;;;21.00;99.90;;;;;;5101946;28;20055;-65
2023/07/30 11:38:14;;;;;;;2.03;1.83;;;21.30;99.90;;;;;;5076602;28;20081;-64
2023/07/30 11:40:47;;;;;;;2.25;1.65;;;21.40;99.90;;;;;;5081395;28;20055;-64
2023/07/30 11:43:21;;;;;;;2.08;1.88;;;21.60;99.90;;;;;;5095768;28;20040;-64
2023/07/30 11:46:09;;;;;;;3.03;1.67;;;21.70;99.90;;;;;;5066182;28;20058;-64
2023/07/30 11:48:36;;;;;;;4.95;1.90;;;21.80;99.90;;;;;;5094724;28;20051;-64
2023/07/30 11:51:19;;;;;;;2.30;1.42;;;21.90;99.90;;;;;;5086338;28;20032;-64
2023/07/30 11:53:53;;;;;;;2.08;1.70;;;22.20;99.90;;;;;;5104890;28;20040;-64
2023/07/30 11:56:26;;;;;;;3.45;1.67;;;22.40;99.90;;;;;;5106668;28;20066;-64
2023/07/30 11:59:05;;;;;;;2.40;1.67;;;22.30;99.90;;;;;;5102790;28;20040;-64
2023/07/30 12:01:37;;;;;;;4.88;2.25;;;22.00;99.90;;;;;;5097393;28;20104;-64
2023/07/30 12:04:09;;;;;;;2.03;1.80;;;21.90;99.90;;;;;;5077155;28;20539;-64
2023/07/30 12:06:42;;;;;;;2.60;1.75;;;21.60;99.90;;;;;;5071192;28;20048;-64
2023/07/30 12:09:13;;;;;;;1.98;1.40;;;21.40;99.90;;;;;;5094476;28;20036;-64
2023/07/30 12:11:55;;;;;;;4.47;1.80;;;21.00;99.90;;;;;;5096615;28;20118;-65
2023/07/30 12:14:47;;;;;;;5.32;2.00;;;20.40;99.90;;;;;;5102384;28;20036;-64
2023/07/30 12:17:14;;;;;;;2.75;2.22;;;20.10;99.90;;;;;;5071127;28;20044;-65
2023/07/30 12:19:46;;;;;;;3.13;1.75;;;20.20;99.90;;;;;;5080263;28;20040;-65
2023/07/30 12:22:18;;;;;;;1.88;1.48;;;20.30;99.90;;;;;;5076971;28;20881;-64
2023/07/30 12:24:45;;;;;;;2.17;1.77;;;20.50;99.90;;;;;;5074302;28;20111;-64
2023/07/30 12:27:12;;;;;;;3.55;1.95;;;20.70;99.90;;;;;;5088419;28;20040;-64
2023/07/30 12:29:44;;;;;;;3.67;1.92;;;20.90;99.90;;;;;;5094365;28;20531;-64
2023/07/30 12:32:16;;;;;;;2.15;1.60;;;21.20;99.90;;;;;;5075841;28;20050;-65
2023/07/30 12:34:48;;;;;;;2.30;1.80;;;21.30;99.90;;;;;;5091760;28;20033;-65
2023/07/30 12:37:20;;;;;;;3.38;1.77;;;21.50;99.90;;;;;;5097578;28;20050;-64
2023/07/30 12:39:52;;;;;;;2.08;1.88;;;21.70;99.90;;;;;;5076463;28;20048;-65
2023/07/30 12:42:23;;;;;;;3.30;2.13;;;21.80;99.90;;;;;;5075847;28;20048;-65
2023/07/30 12:44:55;;;;;;;2.55;1.70;;;21.90;99.90;;;;;;5077832;28;20043;-64
2023/07/30 12:47:28;;;;;;;2.08;1.70;;;22.00;99.90;;;;;;5072590;28;20514;-64
2023/07/30 12:49:54;;;;;;;1.50;1.38;;;22.00;99.90;;;;;;5092196;28;20565;-64
2023/07/30 12:52:26;;;;;;;1.88;1.48;;;22.00;99.90;;;;;;5061809;28;20040;-64
2023/07/30 12:54:58;;;;;;;2.22;1.65;;;22.20;99.90;;;;;;5076199;28;20527;-64
2023/07/30 12:57:31;;;;;;;3.42;1.83;;;22.20;99.90;;;;;;5087714;28;20044;-64
2023/07/30 13:00:04;;;;;;;2.38;1.80;;;22.40;99.90;;;;;;5078367;28;20050;-64
2023/07/30 13:02:35;;;;;;;2.55;1.55;;;22.40;99.90;;;;;;5087141;28;20054;-64
2023/07/30 13:05:07;;;;;;;2.17;1.60;;;22.30;99.90;;;;;;5100166;28;20562;-65
2023/07/30 13:07:39;;;;;;;1.92;1.42;;;22.50;99.90;;;;;;5096204;28;20040;-64
2023/07/30 13:10:11;;;;;;;1.88;1.40;;;22.60;99.90;;;;;;5096074;28;20039;-64
2023/07/30 13:12:43;;;;;;;2.40;1.55;;;22.70;99.90;;;;;;5092423;28;20527;-64